createdAt,value
2019-03-16T00:04:07.389Z,70.2
2019-03-16T00:09:07.584Z,70.93
2019-03-16T00:14:07.040Z,72.36
2019-03-16T00:19:06.947Z,72.74
2019-03-16T00:23:07.751Z,73.89
2019-03-16T00:28:07.055Z,74.9
2019-03-16T00:33:07.454Z,75.71
2019-03-16T00:38:07.892Z,76.54
2019-03-16T00:43:07.718Z,76.75
2019-03-16T00:48:07.659Z,76.91
2019-03-16T00:53:07.118Z,77.33
2019-03-16T00:58:07.567Z,78.32
2019-03-16T01:03:06.900Z,77.95
2019-03-16T01:07:07.589Z,78.44
2019-03-16T01:12:07.642Z,78.38
2019-03-16T01:17:07.620Z,79.48
2019-03-16T01:22:08.337Z,78.96
2019-03-16T01:27:07.936Z,79.97
2019-03-16T01:32:08.057Z,79.33
2019-03-16T01:36:07.318Z,79.9
2019-03-16T01:41:07.325Z,79.73
2019-03-16T01:46:07.789Z,80.48
2019-03-16T01:51:07.293Z,79.8
2019-03-16T01:56:07.693Z,79.81
2019-03-16T02:01:07.994Z,80.47
2019-03-16T02:06:09.611Z,79.51
2019-03-16T02:11:08.755Z,79.32
2019-03-16T02:16:12.489Z,79.64
2019-03-16T02:21:07.919Z,79.35
2019-03-16T02:26:07.270Z,79.71
2019-03-16T02:30:08.938Z,79.7
2019-03-16T02:35:08.071Z,80.09
2019-03-16T02:40:07.871Z,79.27
2019-03-16T02:45:08.386Z,79.37
2019-03-16T02:50:07.650Z,80.16
2019-03-16T02:55:07.257Z,80.28
2019-03-16T03:00:09.338Z,79.52
2019-03-16T03:05:07.703Z,78.87
2019-03-16T03:10:07.597Z,79.54
2019-03-16T03:15:08.813Z,79.37
2019-03-16T03:19:07.296Z,78.9
2019-03-16T03:24:07.849Z,79.19
2019-03-16T03:29:07.264Z,79.55
2019-03-16T03:34:07.610Z,79.7
2019-03-16T03:39:07.609Z,79.71
2019-03-16T03:44:07.153Z,79.47
2019-03-16T03:49:07.246Z,80.02
2019-03-16T03:54:07.789Z,79.96
2019-03-16T03:58:07.393Z,79.78
2019-03-16T04:03:07.941Z,80.56
2019-03-16T04:08:07.493Z,80.16
2019-03-16T04:13:07.152Z,80.51
2019-03-16T04:18:08.060Z,80.01
2019-03-16T04:23:07.186Z,80.02
2019-03-16T04:28:07.948Z,80.05
2019-03-16T04:33:07.296Z,79.43
2019-03-16T04:37:07.625Z,79.51
2019-03-16T04:42:07.108Z,79.8
2019-03-16T04:47:07.465Z,80.43
2019-03-16T04:52:07.688Z,80.64
2019-03-16T04:57:07.438Z,80.17
2019-03-16T05:02:07.453Z,80.73
2019-03-16T05:07:07.888Z,81.17
2019-03-16T05:12:07.966Z,81.54
2019-03-16T05:17:07.343Z,81.53
2019-03-16T05:21:07.501Z,82.3
2019-03-16T05:26:08.293Z,82.5
2019-03-16T05:31:07.667Z,82.16
2019-03-16T05:36:07.188Z,82.2
2019-03-16T05:41:08.044Z,82.62
2019-03-16T05:46:08.006Z,82.28
2019-03-16T05:51:07.430Z,82.22
2019-03-16T05:56:07.942Z,82.18
2019-03-16T06:01:07.739Z,81.98
2019-03-16T06:05:12.268Z,82.01
2019-03-16T06:10:08.110Z,82.12
2019-03-16T06:15:09.333Z,81.61
2019-03-16T06:20:07.561Z,81.15
2019-03-16T06:25:08.011Z,79.54
2019-03-16T06:30:08.998Z,79.04
2019-03-16T06:35:07.547Z,78.6
2019-03-16T06:40:07.388Z,79.51
2019-03-16T06:44:07.875Z,79
2019-03-16T06:49:06.889Z,79.12
2019-03-16T06:54:07.504Z,77.82
2019-03-16T06:59:06.834Z,78.28
2019-03-16T07:04:07.822Z,77.36
2019-03-16T07:09:07.684Z,77.46
2019-03-16T07:14:07.184Z,76.06
2019-03-16T07:19:07.368Z,75.25
2019-03-16T07:24:07.584Z,75.52
2019-03-16T07:28:07.273Z,75.13
2019-03-16T07:33:07.746Z,74.43
2019-03-16T07:38:07.222Z,74.75
2019-03-16T07:43:07.090Z,75.23
2019-03-16T07:48:07.522Z,74.44
2019-03-16T07:53:08.032Z,73.33
2019-03-16T07:58:07.514Z,74.02
2019-03-16T08:02:07.928Z,73.35
2019-03-16T08:07:07.360Z,74.52
2019-03-16T08:12:07.335Z,74.05
2019-03-16T08:17:07.833Z,74.1
2019-03-16T08:22:07.361Z,73.98
2019-03-16T08:27:08.354Z,73.36
2019-03-16T08:32:07.464Z,73.07
2019-03-16T08:37:06.979Z,72.55
2019-03-16T08:42:06.923Z,72.74
2019-03-16T08:46:07.411Z,73.33
2019-03-16T08:51:07.994Z,72.86
2019-03-16T08:56:07.363Z,72.01
2019-03-16T09:01:07.676Z,73.07
2019-03-16T09:06:07.264Z,71.59
2019-03-16T09:11:07.154Z,71.08
2019-03-16T09:16:07.067Z,71.75
2019-03-16T09:21:07.527Z,70.66
2019-03-16T09:25:07.420Z,70.08
2019-03-16T09:30:09.086Z,73.9
2019-03-16T09:35:08.078Z,76.61
2019-03-16T09:40:07.776Z,78.65
2019-03-16T09:45:08.368Z,82.67
2019-03-16T09:50:08.526Z,82
2019-03-16T09:55:07.946Z,82.88
2019-03-16T10:00:09.094Z,85.91
2019-03-16T10:04:07.913Z,86.4
2019-03-16T10:09:07.835Z,86.74
2019-03-16T10:14:07.338Z,87.41
2019-03-16T10:19:07.143Z,88.17
2019-03-16T10:24:07.948Z,87.97
2019-03-16T10:29:07.398Z,87.11
2019-03-16T10:34:07.549Z,89.01
2019-03-16T10:39:08.538Z,90.64
2019-03-16T10:43:07.704Z,89.2
2019-03-16T10:48:07.367Z,89.08
2019-03-16T10:53:06.831Z,89.91
2019-03-16T10:58:07.332Z,89.82
2019-03-16T11:03:07.131Z,91.26
2019-03-16T11:08:07.617Z,91.81
2019-03-16T11:13:07.514Z,90.57
2019-03-16T11:17:06.956Z,91.6
2019-03-16T11:22:07.474Z,90.72
2019-03-16T11:27:07.029Z,91.05
2019-03-16T11:32:07.230Z,90.86
2019-03-16T11:37:08.060Z,90.17
2019-03-16T11:42:07.753Z,91.22
2019-03-16T11:47:08.028Z,91.01
2019-03-16T11:51:07.402Z,93.08
2019-03-16T11:56:18.953Z,93.38
2019-03-16T12:01:07.878Z,93.93
2019-03-16T12:06:07.249Z,93.86
2019-03-16T12:11:08.211Z,93.66
2019-03-16T12:16:08.128Z,94.72
2019-03-16T12:21:07.626Z,95.19
2019-03-16T12:26:08.097Z,94.94
2019-03-16T12:31:07.299Z,94.83
2019-03-16T12:36:07.685Z,95.44
2019-03-16T12:41:08.050Z,94.79
2019-03-16T12:45:08.509Z,94.23
2019-03-16T12:50:07.685Z,93.7
2019-03-16T12:55:07.447Z,94.67
2019-03-16T13:00:09.378Z,94
2019-03-16T13:05:07.646Z,94.55
2019-03-16T13:10:07.690Z,95.96
2019-03-16T13:15:08.771Z,97.27
2019-03-16T13:20:07.742Z,97.01
2019-03-16T13:24:06.942Z,97.69
2019-03-16T13:29:07.487Z,97.92
2019-03-16T13:34:06.840Z,98.33
2019-03-16T13:39:08.041Z,98.93
2019-03-16T13:44:07.210Z,99.05
2019-03-16T13:49:07.641Z,99.5
2019-03-16T13:54:07.216Z,99.75
2019-03-16T13:58:07.989Z,99.75
2019-03-16T14:03:07.424Z,99.78
2019-03-16T14:08:07.436Z,99.54
2019-03-16T14:13:06.957Z,99.82
2019-03-16T14:18:07.207Z,99.75
2019-03-16T14:23:08.131Z,99.71
2019-03-16T14:28:07.709Z,99.91
2019-03-16T14:33:07.611Z,100.12
2019-03-16T14:37:07.820Z,100.2
2019-03-16T14:42:07.616Z,100.17
2019-03-16T14:47:08.316Z,99.94
2019-03-16T14:52:08.096Z,99.9
2019-03-16T14:57:07.532Z,100.11
2019-03-16T15:02:07.296Z,100.15
2019-03-16T15:07:07.854Z,100.36
2019-03-16T15:11:07.510Z,100.48
2019-03-16T15:16:07.513Z,100.63
2019-03-16T15:21:07.345Z,100.69
2019-03-16T15:26:07.924Z,100.89
2019-03-16T15:31:07.901Z,100.92
2019-03-16T15:36:07.356Z,101.01
2019-03-16T15:41:08.092Z,101.1
2019-03-16T15:45:08.713Z,100.95
2019-03-16T15:50:07.690Z,100.99
2019-03-16T15:55:06.945Z,101.14
2019-03-16T16:00:09.929Z,101.36
2019-03-16T16:05:07.179Z,101.5
2019-03-16T16:10:08.063Z,101.56
2019-03-16T16:15:08.635Z,101.69
2019-03-16T16:20:07.897Z,101.78
2019-03-16T16:24:06.897Z,101.78
2019-03-16T16:29:07.747Z,101.69
2019-03-16T16:34:07.742Z,100.31
2019-03-16T16:39:07.829Z,99.01
2019-03-16T16:44:06.996Z,98.37
2019-03-16T16:49:07.978Z,97.18
2019-03-16T16:54:07.164Z,96.63
2019-03-16T16:59:08.081Z,97.02
2019-03-16T17:03:07.572Z,96.88
2019-03-16T17:08:07.389Z,97.53
2019-03-16T17:13:07.378Z,96.52
2019-03-16T17:18:07.416Z,96.21
2019-03-16T17:23:07.496Z,95.7
2019-03-16T17:28:07.273Z,95.68
2019-03-16T17:33:07.531Z,94.88
2019-03-16T17:37:07.654Z,93.83
2019-03-16T17:42:08.930Z,93.66
2019-03-16T17:47:07.766Z,93.48
2019-03-16T17:52:07.411Z,92.81
2019-03-16T17:57:08.066Z,92.46
2019-03-16T18:02:07.479Z,91.4
2019-03-16T18:07:07.918Z,91.38
2019-03-16T18:11:07.467Z,91.68
2019-03-16T18:16:07.569Z,91.3
2019-03-16T18:21:07.080Z,90.9
2019-03-16T18:26:07.568Z,90.93
2019-03-16T18:31:07.196Z,89.77
2019-03-16T18:36:07.578Z,90.81
2019-03-16T18:41:07.563Z,90.54
2019-03-16T18:46:07.693Z,90.34
2019-03-16T18:51:07.166Z,90.22
2019-03-16T18:55:07.299Z,89.84
2019-03-16T19:00:10.162Z,89.33
2019-03-16T19:05:07.657Z,87.52
2019-03-16T19:10:07.890Z,86.7
2019-03-16T19:15:08.262Z,86.97
2019-03-16T19:20:07.861Z,86.66
2019-03-16T19:25:07.476Z,86.93
2019-03-16T19:30:09.005Z,86.28
2019-03-16T19:35:07.531Z,87.14
2019-03-16T19:39:08.425Z,87.29
2019-03-16T19:44:07.803Z,86.37
2019-03-16T19:49:07.906Z,86.66
2019-03-16T19:54:07.415Z,86.74
2019-03-16T19:59:06.992Z,86.35
2019-03-16T20:04:07.903Z,87.04
2019-03-16T20:09:07.462Z,86.78
2019-03-16T20:14:07.024Z,85.9
2019-03-16T20:18:07.654Z,85.27
2019-03-16T20:19:07.492Z,85.27
2019-03-16T20:23:07.181Z,85.66
2019-03-16T20:28:07.609Z,85.11
2019-03-16T20:33:07.688Z,85.61
2019-03-16T20:38:07.189Z,84.36
2019-03-16T20:43:07.142Z,83.5
2019-03-16T20:48:07.940Z,83.27
2019-03-16T20:53:07.498Z,82.99
2019-03-16T20:58:08.086Z,82.54
2019-03-16T21:03:17.285Z,82.77
2019-03-16T21:07:07.697Z,83.8
2019-03-16T21:12:07.593Z,83.18
2019-03-16T21:17:07.422Z,83.21
2019-03-16T21:22:07.923Z,81.92
2019-03-16T21:27:07.373Z,83.08
2019-03-16T21:32:07.479Z,83.34
2019-03-16T21:36:07.645Z,80.73
2019-03-16T21:37:07.082Z,80.73
2019-03-16T21:41:07.624Z,82.08
2019-03-16T21:46:07.921Z,82.33
2019-03-16T21:51:07.542Z,82.2
2019-03-16T21:56:07.165Z,82.18
2019-03-16T22:01:07.735Z,81.72
2019-03-16T22:06:07.461Z,80.99
2019-03-16T22:11:06.907Z,81.44
2019-03-16T22:16:07.409Z,80.93
2019-03-16T22:21:07.963Z,81.07
2019-03-16T22:25:07.045Z,81
2019-03-16T22:30:09.204Z,80.51
2019-03-16T22:35:10.226Z,79.9
2019-03-16T22:40:08.091Z,80.67
2019-03-16T22:45:08.844Z,80.47
2019-03-16T22:50:07.852Z,80.23
2019-03-16T22:55:07.052Z,80.38
2019-03-16T23:00:10.284Z,79.26
2019-03-16T23:05:07.195Z,79.72
2019-03-16T23:10:07.498Z,79.72
2019-03-16T23:14:07.916Z,79.47
2019-03-16T23:19:07.983Z,80.16
2019-03-16T23:24:07.548Z,79.51
2019-03-16T23:29:08.395Z,79.08
2019-03-16T23:34:20.266Z,79.09
2019-03-16T23:39:08.007Z,78.72
2019-03-16T23:44:07.544Z,78.93
2019-03-16T23:49:07.982Z,78.86
2019-03-16T23:54:07.565Z,78.51
2019-03-16T23:58:08.114Z,78.13
2019-03-16T23:59:07.290Z,78.13
